Time;durP1;ratioP1;P1;durP2;ratioP2;P2;SDS_P1;SDS_P2;PMS_P1;PMS_P2;Temp;Humidity;BMP_temperature;BMP_pressure;BME280_temperature;BME280_humidity;BME280_pressure;Samples;Min_cycle;Max_cycle;Signal;HPM_P1;HPM_P2
2023/03/04 00:02:04;;;;;;;73.40;31.60;;;;;;;-1.08;100.00;98076.06;52446;1257;1018245;-77
2023/03/04 00:04:31;;;;;;;74.40;35.20;;;;;;;-1.10;100.00;98072.02;52422;1254;1071568;-76
2023/03/04 00:06:57;;;;;;;78.00;34.20;;;;;;;-1.08;100.00;98064.89;52378;1254;1016302;-76
2023/03/04 00:09:24;;;;;;;82.10;35.90;;;;;;;-1.07;100.00;98065.46;52474;1254;1073156;-76
2023/03/04 00:11:50;;;;;;;62.90;26.20;;;;;;;-1.06;100.00;98060.88;52421;1254;1016263;-76
2023/03/04 00:14:17;;;;;;;91.10;34.90;;;;;;;-1.05;100.00;98050.33;52448;1254;1050571;-75
2023/03/04 00:16:43;;;;;;;76.60;32.90;;;;;;;-1.11;100.00;98045.08;52501;1257;1016386;-76
2023/03/04 00:19:10;;;;;;;79.10;32.90;;;;;;;-1.10;100.00;98049.77;52457;1257;1058926;-76
2023/03/04 00:21:37;;;;;;;85.90;34.00;;;;;;;-1.09;100.00;98053.44;52412;1254;1016231;-77
2023/03/04 00:24:03;;;;;;;77.30;32.50;;;;;;;-1.08;100.00;98053.55;52490;1253;1073345;-76
2023/03/04 00:26:30;;;;;;;77.10;32.20;;;;;;;-1.10;100.00;98051.85;52525;1254;1016437;-76
2023/03/04 00:28:57;;;;;;;79.80;29.70;;;;;;;-1.08;100.00;98042.39;52501;1253;1069666;-77
2023/03/04 00:31:24;;;;;;;68.40;29.50;;;;;;;-1.10;100.00;98037.52;52584;1256;1018088;-77
2023/03/04 00:33:50;;;;;;;78.30;31.00;;;;;;;-1.16;100.00;98038.54;52485;1254;1071336;-76
2023/03/04 00:36:17;;;;;;;65.50;28.40;;;;;;;-1.19;100.00;98033.67;52495;1254;1016528;-77
2023/03/04 00:38:44;;;;;;;73.40;29.40;;;;;;;-1.16;100.00;98036.33;52519;1254;1053573;-76
2023/03/04 00:41:10;;;;;;;80.70;33.30;;;;;;;-1.17;100.00;98031.50;52488;1254;1016296;-76
2023/03/04 00:43:37;;;;;;;78.40;34.10;;;;;;;-1.16;100.00;98027.52;52436;1253;1061465;-76
2023/03/04 00:46:04;;;;;;;87.20;37.90;;;;;;;-1.18;100.00;98025.41;52535;1254;1016329;-76
2023/03/04 00:48:30;;;;;;;87.50;38.40;;;;;;;-1.19;100.00;98023.58;52451;1254;1075213;-77
2023/03/04 00:50:57;;;;;;;79.10;32.90;;;;;;;-1.20;100.00;98020.45;52442;1256;1016180;-77
2023/03/04 00:53:23;;;;;;;69.40;32.90;;;;;;;-1.20;100.00;98019.30;52494;1254;1072137;-76
2023/03/04 00:55:50;;;;;;;84.10;33.20;;;;;;;-1.19;100.00;98015.21;52401;1254;1015938;-77
2023/03/04 00:58:17;;;;;;;92.40;36.60;;;;;;;-1.22;100.00;98013.85;52420;1254;1070733;-77
2023/03/04 01:00:43;;;;;;;99.70;38.50;;;;;;;-1.25;100.00;98012.80;52466;1257;1018595;-77
2023/03/04 01:03:10;;;;;;;83.80;32.60;;;;;;;-1.25;100.00;98004.82;52480;1258;1050774;-77
2023/03/04 01:05:36;;;;;;;78.60;33.20;;;;;;;-1.21;100.00;98001.45;52386;1254;1016453;-77
2023/03/04 01:08:04;;;;;;;87.10;39.50;;;;;;;-1.20;100.00;97994.06;52426;1254;1061157;-76
2023/03/04 01:10:30;;;;;;;67.60;28.00;;;;;;;-1.22;100.00;97989.96;52406;1254;1016460;-76
2023/03/04 01:12:57;;;;;;;69.50;31.50;;;;;;;-1.26;100.00;97992.48;52435;1253;1075412;-77
2023/03/04 01:15:23;;;;;;;94.10;44.40;;;;;;;-1.24;100.00;97987.60;52515;1254;1016151;-77
2023/03/04 01:17:50;;;;;;;76.40;32.90;;;;;;;-1.26;100.00;97986.71;52409;1254;1060845;-77
2023/03/04 01:20:17;;;;;;;80.30;29.90;;;;;;;-1.26;100.00;97983.60;52479;1254;1016437;-77
2023/03/04 01:22:44;;;;;;;76.80;32.50;;;;;;;-1.23;100.00;97979.17;52519;1254;1072887;-77
2023/03/04 01:25:10;;;;;;;80.80;32.50;;;;;;;-1.25;100.00;97974.52;52439;1256;1016736;-76
2023/03/04 01:27:37;;;;;;;77.20;33.20;;;;;;;-1.23;100.00;97974.84;52480;1256;1050671;-77
2023/03/04 01:30:04;;;;;;;82.90;31.10;;;;;;;-1.23;100.00;97965.95;52532;1257;1018925;-77
2023/03/04 01:32:31;;;;;;;64.30;29.70;;;;;;;-1.22;100.00;97964.98;52513;1256;1058290;-77
2023/03/04 01:34:58;;;;;;;65.70;27.60;;;;;;;-1.26;100.00;97963.64;52499;1254;1018857;-77
2023/03/04 01:37:24;;;;;;;76.10;28.90;;;;;;;-1.28;100.00;97961.99;52505;1254;1065167;-77
2023/03/04 01:39:51;;;;;;;84.10;39.50;;;;;;;-1.31;100.00;97955.48;52496;1254;1016134;-76
2023/03/04 01:42:22;;;;;;;87.00;36.40;;;;;;;-1.35;100.00;97943.67;52566;1254;1070093;-76
2023/03/04 01:44:48;;;;;;;62.00;26.00;;;;;;;-1.36;100.00;97941.02;52527;1254;1060455;-77
2023/03/04 01:47:15;;;;;;;75.80;34.80;;;;;;;-1.40;100.00;97935.25;52422;1254;1016683;-76
2023/03/04 01:49:42;;;;;;;74.40;29.20;;;;;;;-1.44;100.00;97934.00;52460;1259;1073610;-77
2023/03/04 01:52:10;;;;;;;85.10;36.20;;;;;;;-1.43;100.00;97929.95;52413;1256;1016061;-76
2023/03/04 01:54:37;;;;;;;66.80;28.40;;;;;;;-1.43;100.00;97927.66;52411;1257;1053335;-76
2023/03/04 01:57:24;;;;;;;71.20;26.00;;;;;;;-1.41;100.00;97924.09;52455;1257;1016332;-77
2023/03/04 02:00:17;;;;;;;77.00;28.50;;;;;;;-1.47;100.00;97918.81;52404;1254;1061154;-77
2023/03/04 02:02:45;;;;;;;70.30;30.20;;;;;;;-1.48;100.00;97916.11;52401;1259;1060961;-77
2023/03/04 02:05:12;;;;;;;79.20;33.60;;;;;;;-1.46;100.00;97909.33;52482;1254;1015854;-78
2023/03/04 02:07:38;;;;;;;74.80;29.50;;;;;;;-1.45;100.00;97910.23;52459;1254;1073348;-78
2023/03/04 02:10:05;;;;;;;72.10;29.30;;;;;;;-1.47;100.00;97907.11;52421;1254;1016032;-76
2023/03/04 02:12:32;;;;;;;79.50;35.00;;;;;;;-1.48;100.00;97903.77;52519;1254;1069161;-76
2023/03/04 02:14:59;;;;;;;80.10;40.90;;;;;;;-1.47;100.00;97899.50;52465;1254;1016245;-77
2023/03/04 02:17:26;;;;;;;87.00;34.60;;;;;;;-1.50;100.00;97898.98;52453;1254;1073516;-77
2023/03/04 02:20:18;;;;;;;69.30;28.20;;;;;;;-1.54;100.00;97892.90;52403;1257;1017034;-76
2023/03/04 02:22:53;;;;;;;60.40;24.20;;;;;;;-1.56;100.00;97886.77;52455;1257;1051356;-77
2023/03/04 02:25:21;;;;;;;73.00;30.60;;;;;;;-1.56;100.00;97884.42;52435;1254;1054036;-77
2023/03/04 02:27:48;;;;;;;75.90;32.20;;;;;;;-1.56;100.00;97876.17;52554;1254;1016636;-76
2023/03/04 02:30:16;;;;;;;77.20;29.60;;;;;;;-1.56;100.00;97873.43;52392;1254;1016386;-77
2023/03/04 02:32:42;;;;;;;72.80;29.20;;;;;;;-1.61;100.00;97874.02;52567;1253;1058493;-76
2023/03/04 02:35:15;;;;;;;67.30;25.80;;;;;;;-1.61;100.00;97872.59;52426;1259;1018194;-76
2023/03/04 02:37:41;;;;;;;63.00;26.80;;;;;;;-1.60;100.00;97871.20;52328;1254;1076304;-76
2023/03/04 02:40:15;;;;;;;60.10;28.50;;;;;;;-1.60;100.00;97868.58;52560;1256;1016312;-77
2023/03/04 02:42:43;;;;;;;72.40;31.90;;;;;;;-1.61;100.00;97866.24;52524;1254;1069559;-76
2023/03/04 02:45:35;;;;;;;63.00;22.60;;;;;;;-1.65;100.00;97872.58;52549;1254;1015785;-77
2023/03/04 02:48:02;;;;;;;61.30;28.80;;;;;;;-1.67;100.00;97870.30;52426;1254;1069535;-77
2023/03/04 02:50:30;;;;;;;72.90;35.60;;;;;;;-1.69;100.00;97864.58;52464;1254;1017968;-77
2023/03/04 02:52:57;;;;;;;60.00;26.20;;;;;;;-1.67;100.00;97863.88;52387;1254;1071791;-76
2023/03/04 02:55:23;;;;;;;46.90;19.20;;;;;;;-1.69;100.00;97860.25;52400;1257;1016138;-77
2023/03/04 02:57:50;;;;;;;66.20;27.00;;;;;;;-1.71;100.00;97854.45;52492;1258;1050710;-77
2023/03/04 03:00:17;;;;;;;58.90;25.70;;;;;;;-1.77;100.00;97850.65;52421;1256;1015986;-76
2023/03/04 03:02:43;;;;;;;80.50;38.90;;;;;;;-1.80;100.00;97851.70;52390;1254;1061113;-77
2023/03/04 03:05:11;;;;;;;68.30;28.40;;;;;;;-1.81;100.00;97850.39;52531;1256;1016479;-77
2023/03/04 03:07:38;;;;;;;69.30;29.70;;;;;;;-1.82;100.00;97845.08;52422;1257;1076523;-77
2023/03/04 03:10:05;;;;;;;58.10;26.10;;;;;;;-1.85;100.00;97839.97;52438;1254;1015988;-77
2023/03/04 03:12:31;;;;;;;68.00;29.80;;;;;;;-1.88;100.00;97834.45;52426;1254;1069716;-77
2023/03/04 03:14:58;;;;;;;69.90;27.70;;;;;;;-1.92;100.00;97833.80;52530;1254;1015854;-76
2023/03/04 03:17:24;;;;;;;66.30;28.20;;;;;;;-1.93;100.00;97828.98;52410;1257;1070993;-76
2023/03/04 03:19:51;;;;;;;46.10;20.50;;;;;;;-1.94;100.00;97823.89;52435;1255;1019354;-77
2023/03/04 03:22:18;;;;;;;66.70;29.30;;;;;;;-1.98;100.00;97822.61;52441;1257;1050053;-77
2023/03/04 03:24:44;;;;;;;81.30;33.30;;;;;;;-2.04;100.00;97817.59;52478;1254;1015747;-77
2023/03/04 03:27:11;;;;;;;90.80;41.00;;;;;;;-2.07;100.00;97808.96;52633;1256;1062118;-77
2023/03/04 03:29:38;;;;;;;57.40;22.70;;;;;;;-2.09;100.00;97804.14;52518;1254;1016481;-77
2023/03/04 03:32:04;;;;;;;65.60;28.50;;;;;;;-2.13;100.00;97808.91;52494;1255;1073075;-77
2023/03/04 03:34:31;;;;;;;61.60;27.40;;;;;;;-2.18;100.00;97808.39;52458;1254;1016308;-76
2023/03/04 03:36:58;;;;;;;62.60;27.10;;;;;;;-2.17;100.00;97805.21;52460;1257;1069757;-77
2023/03/04 03:39:24;;;;;;;50.10;20.60;;;;;;;-2.16;100.00;97804.83;52462;1254;1017449;-78
2023/03/04 03:41:51;;;;;;;77.40;32.10;;;;;;;-2.16;100.00;97802.13;52435;1254;1073833;-76
2023/03/04 03:44:18;;;;;;;87.60;33.60;;;;;;;-2.20;100.00;97799.16;52453;1257;1018268;-76
2023/03/04 03:46:46;;;;;;;65.20;26.60;;;;;;;-2.20;100.00;97799.41;52599;1257;1050871;-77
2023/03/04 03:49:12;;;;;;;79.80;42.10;;;;;;;-2.19;100.00;97792.55;52427;1260;1016286;-77
2023/03/04 03:51:39;;;;;;;82.60;35.00;;;;;;;-2.22;100.00;97794.67;52453;1256;1061506;-77
2023/03/04 03:54:05;;;;;;;79.40;31.00;;;;;;;-2.24;100.00;97794.09;52427;1254;1016036;-76
2023/03/04 03:56:32;;;;;;;87.90;32.60;;;;;;;-2.25;100.00;97790.65;52488;1254;1073162;-77
2023/03/04 03:58:59;;;;;;;57.90;24.50;;;;;;;-2.25;100.00;97789.23;52464;1254;1015993;-77
2023/03/04 04:01:25;;;;;;;73.50;31.00;;;;;;;-2.25;100.00;97790.29;52452;1257;1069277;-76
2023/03/04 04:03:52;;;;;;;51.40;21.00;;;;;;;-2.27;100.00;97785.88;52423;1254;1016157;-76
2023/03/04 04:06:19;;;;;;;47.00;22.40;;;;;;;-2.28;100.00;97786.61;52490;1258;1071552;-77
2023/03/04 04:08:45;;;;;;;68.70;29.50;;;;;;;-2.33;100.00;97783.02;52414;1257;1016051;-77
2023/03/04 04:11:12;;;;;;;72.40;34.30;;;;;;;-2.36;100.00;97783.43;52413;1254;1050619;-77
2023/03/04 04:13:38;;;;;;;57.30;24.80;;;;;;;-2.37;100.00;97778.29;52440;1254;1016371;-76
2023/03/04 04:16:06;;;;;;;74.30;32.10;;;;;;;-2.38;100.00;97782.86;52465;1254;1058129;-76
2023/03/04 04:18:33;;;;;;;62.30;27.50;;;;;;;-2.43;100.00;97785.30;52513;1254;1017684;-76
2023/03/04 04:20:59;;;;;;;68.90;31.50;;;;;;;-2.46;100.00;97785.21;52428;1257;1077196;-77
2023/03/04 04:23:26;;;;;;;79.60;31.60;;;;;;;-2.49;100.00;97781.41;52424;1254;1017146;-76
2023/03/04 04:25:56;;;;;;;96.40;44.90;;;;;;;-2.49;100.00;97782.09;52561;1254;1069425;-77
2023/03/04 04:28:23;;;;;;;78.50;33.80;;;;;;;-2.54;100.00;97782.06;52528;1253;1016336;-77
2023/03/04 04:30:50;;;;;;;81.70;30.90;;;;;;;-2.58;100.00;97775.65;52386;1254;1016248;-76
2023/03/04 04:33:16;;;;;;;86.50;39.50;;;;;;;-2.59;100.00;97777.43;52557;1256;1070609;-76
2023/03/04 04:35:43;;;;;;;80.00;39.20;;;;;;;-2.61;100.00;97777.11;52468;1256;1018510;-76
2023/03/04 04:38:09;;;;;;;82.10;35.20;;;;;;;-2.64;100.00;97779.50;52439;1253;1050978;-76
2023/03/04 04:40:36;;;;;;;90.10;40.00;;;;;;;-2.66;100.00;97780.27;52586;1256;1016192;-77
2023/03/04 04:43:03;;;;;;;84.10;38.10;;;;;;;-2.66;100.00;97773.63;52429;1254;1058800;-77
2023/03/04 04:45:30;;;;;;;89.60;38.00;;;;;;;-2.67;100.00;97768.00;52493;1259;1016215;-77
2023/03/04 04:47:57;;;;;;;73.80;33.50;;;;;;;-2.72;100.00;97772.80;52501;1254;1074567;-77
2023/03/04 04:50:24;;;;;;;68.50;28.90;;;;;;;-2.73;100.00;97770.84;52470;1254;1016445;-76
2023/03/04 04:52:50;;;;;;;65.80;29.80;;;;;;;-2.71;100.00;97770.77;52517;1254;1068069;-76
2023/03/04 04:55:17;;;;;;;71.20;30.70;;;;;;;-2.66;100.00;97769.88;52441;1254;1016545;-77
2023/03/04 04:57:44;;;;;;;91.50;32.90;;;;;;;-2.64;100.00;97769.65;52399;1257;1073337;-76
2023/03/04 05:00:11;;;;;;;80.80;35.40;;;;;;;-2.68;100.00;97769.27;52516;1257;1016419;-76
2023/03/04 05:02:38;;;;;;;86.60;35.60;;;;;;;-2.69;100.00;97769.54;52391;1257;1053416;-77
2023/03/04 05:05:05;;;;;;;82.10;34.80;;;;;;;-2.72;100.00;97770.03;52453;1258;1017035;-77
2023/03/04 05:07:33;;;;;;;79.70;35.00;;;;;;;-2.76;100.00;97774.05;52449;1258;1057083;-76
2023/03/04 05:09:59;;;;;;;95.70;38.00;;;;;;;-2.77;100.00;97771.23;52475;1257;1015820;-77
2023/03/04 05:12:26;;;;;;;90.20;38.50;;;;;;;-2.76;100.00;97776.54;52496;1254;1074252;-76
2023/03/04 05:14:52;;;;;;;97.20;37.10;;;;;;;-2.72;100.00;97776.93;52537;1258;1015631;-76
2023/03/04 05:17:19;;;;;;;87.80;41.10;;;;;;;-2.72;100.00;97776.00;52455;1254;1072370;-77
2023/03/04 05:19:46;;;;;;;106.60;45.40;;;;;;;-2.71;100.00;97774.44;52411;1257;1020683;-77
2023/03/04 05:22:12;;;;;;;88.10;38.40;;;;;;;-2.80;100.00;97773.73;52479;1254;1071702;-76
2023/03/04 05:24:39;;;;;;;96.20;38.80;;;;;;;-2.82;100.00;97771.27;52443;1257;1018626;-77
2023/03/04 05:27:06;;;;;;;92.70;37.90;;;;;;;-2.84;100.00;97773.30;52529;1256;1051045;-77
2023/03/04 05:29:33;;;;;;;101.50;44.30;;;;;;;-2.83;100.00;97776.92;52509;1256;1016134;-76
2023/03/04 05:31:59;;;;;;;100.70;43.50;;;;;;;-2.79;100.00;97777.68;52536;1257;1058400;-77
2023/03/04 05:34:26;;;;;;;86.70;39.10;;;;;;;-2.76;100.00;97781.77;52484;1256;1015677;-77
2023/03/04 05:36:53;;;;;;;83.30;38.40;;;;;;;-2.79;100.00;97780.14;52492;1253;1075813;-77
2023/03/04 05:39:19;;;;;;;89.10;39.80;;;;;;;-2.91;100.00;97781.61;52476;1254;1015058;-77
2023/03/04 05:41:46;;;;;;;94.80;39.10;;;;;;;-3.02;100.00;97779.94;52481;1254;1069900;-77
2023/03/04 05:44:13;;;;;;;93.30;38.20;;;;;;;-3.05;100.00;97776.22;52456;1254;1015941;-76
2023/03/04 05:46:39;;;;;;;98.70;40.60;;;;;;;-3.02;100.00;97773.38;52374;1257;1070103;-76
2023/03/04 05:49:06;;;;;;;97.80;42.20;;;;;;;-2.95;100.00;97770.70;52416;1254;1017908;-76
2023/03/04 05:51:33;;;;;;;101.50;42.00;;;;;;;-2.92;100.00;97773.84;52439;1254;1053118;-76
2023/03/04 05:53:59;;;;;;;138.00;62.00;;;;;;;-2.87;100.00;97776.64;52451;1254;1015647;-77
2023/03/04 05:56:26;;;;;;;121.00;51.50;;;;;;;-2.84;100.00;97781.30;52417;1254;1062948;-77
2023/03/04 05:58:56;;;;;;;98.50;41.60;;;;;;;-2.84;100.00;97785.91;52454;1254;1016180;-77
2023/03/04 06:01:22;;;;;;;111.70;44.40;;;;;;;-2.82;100.00;97785.26;52466;1255;1073635;-76
2023/03/04 06:03:49;;;;;;;88.80;38.60;;;;;;;-2.78;100.00;97787.44;52463;1258;1015374;-78
2023/03/04 06:06:16;;;;;;;103.00;43.30;;;;;;;-2.72;100.00;97795.66;52453;1254;1071152;-77
2023/03/04 06:08:42;;;;;;;122.00;58.90;;;;;;;-2.81;100.00;97796.11;52450;1253;1017449;-77
2023/03/04 06:11:09;;;;;;;112.80;43.90;;;;;;;-2.79;100.00;97800.82;52413;1258;1070768;-76
2023/03/04 06:13:37;;;;;;;105.60;45.00;;;;;;;-2.76;100.00;97795.92;52415;1254;1016309;-76
2023/03/04 06:16:04;;;;;;;105.10;45.80;;;;;;;-2.73;100.00;97797.94;52445;1254;1051049;-76
2023/03/04 06:18:30;;;;;;;99.80;40.20;;;;;;;-2.71;100.00;97796.73;52498;1254;1016285;-76
2023/03/04 06:20:58;;;;;;;101.00;42.60;;;;;;;-2.62;100.00;97798.13;52469;1254;1057980;-76
2023/03/04 06:23:25;;;;;;;113.00;46.10;;;;;;;-2.50;100.00;97793.98;52485;1254;1016084;-76
2023/03/04 06:25:56;;;;;;;113.10;43.10;;;;;;;-2.44;100.00;97789.79;52439;1256;1074425;-76
2023/03/04 06:28:23;;;;;;;122.80;47.10;;;;;;;-2.43;100.00;97789.67;52485;1254;1076506;-76
2023/03/04 06:30:53;;;;;;;133.40;51.80;;;;;;;-2.39;100.00;97789.91;52473;1254;1015951;-76
2023/03/04 06:33:20;;;;;;;105.10;41.10;;;;;;;-2.33;100.00;97790.61;52450;1254;1072158;-76
2023/03/04 06:35:47;;;;;;;105.90;43.70;;;;;;;-2.24;100.00;97788.17;52503;1254;1016057;-77
2023/03/04 06:38:13;;;;;;;109.80;43.60;;;;;;;-2.10;100.00;97787.15;52493;1256;1072304;-76
2023/03/04 06:40:40;;;;;;;118.90;47.40;;;;;;;-1.90;100.00;97784.89;52490;1257;1016300;-76
2023/03/04 06:43:07;;;;;;;120.00;46.80;;;;;;;-1.70;100.00;97773.84;52520;1256;1054284;-76
2023/03/04 06:45:34;;;;;;;124.80;49.40;;;;;;;-1.75;100.00;97773.80;52445;1254;1016189;-76
2023/03/04 06:48:00;;;;;;;109.60;48.50;;;;;;;-1.75;100.00;97769.55;52490;1260;1061346;-76
2023/03/04 06:50:27;;;;;;;101.70;40.70;;;;;;;-1.66;100.00;97774.14;52490;1254;1016242;-76
2023/03/04 06:52:55;;;;;;;88.30;39.90;;;;;;;-1.55;100.00;97773.55;52466;1257;1076446;-76
2023/03/04 06:55:22;;;;;;;86.90;36.10;;;;;;;-1.36;100.00;97773.62;52436;1254;1016402;-77
2023/03/04 06:57:49;;;;;;;91.00;39.50;;;;;;;-1.21;100.00;97778.44;52498;1254;1016280;-76
2023/03/04 07:00:16;;;;;;;87.60;40.80;;;;;;;-1.07;100.00;97780.10;52406;1254;1072108;-76
2023/03/04 07:02:43;;;;;;;106.40;44.60;;;;;;;-0.95;100.00;97779.67;52514;1254;1015891;-77
2023/03/04 07:05:10;;;;;;;156.30;75.80;;;;;;;-0.81;100.00;97777.77;52373;1257;1071549;-77
2023/03/04 07:07:37;;;;;;;93.00;43.00;;;;;;;-0.79;100.00;97778.05;52430;1258;1016243;-76
2023/03/04 07:10:04;;;;;;;90.40;39.30;;;;;;;-0.70;100.00;97783.81;52464;1264;1050482;-77
2023/03/04 07:12:30;;;;;;;75.90;31.50;;;;;;;-0.56;100.00;97778.80;52487;1254;1016472;-77
2023/03/04 07:14:57;;;;;;;56.20;26.80;;;;;;;-0.45;100.00;97774.73;52509;1259;1062075;-77
2023/03/04 07:17:23;;;;;;;78.10;35.80;;;;;;;-0.38;100.00;97776.44;52405;1258;1015838;-76
2023/03/04 07:19:50;;;;;;;105.20;48.60;;;;;;;-0.18;100.00;97774.03;52437;1254;1075011;-77
2023/03/04 07:22:17;;;;;;;54.00;28.90;;;;;;;0.00;100.00;97769.92;52523;1254;1015908;-76
2023/03/04 07:24:44;;;;;;;61.30;36.00;;;;;;;0.02;100.00;97763.55;52505;1255;1069550;-77
2023/03/04 07:27:10;;;;;;;52.30;27.50;;;;;;;0.26;100.00;97757.09;52572;1253;1016074;-77
2023/03/04 07:29:37;;;;;;;47.90;26.70;;;;;;;1.08;100.00;97750.27;52521;1256;1070678;-77
2023/03/04 07:32:07;;;;;;;87.30;50.70;;;;;;;1.82;99.93;97753.87;52393;1259;1015862;-77
2023/03/04 07:34:34;;;;;;;118.80;82.60;;;;;;;2.25;96.34;97756.97;52439;1254;1051162;-77
2023/03/04 07:37:01;;;;;;;70.60;47.40;;;;;;;3.09;95.76;97750.13;52522;1256;1016418;-77
2023/03/04 07:39:27;;;;;;;66.00;35.90;;;;;;;3.47;90.37;97756.69;52387;1259;1058316;-77
2023/03/04 07:41:54;;;;;;;67.30;39.90;;;;;;;3.94;89.07;97762.35;52475;1254;1016012;-77
2023/03/04 07:44:20;;;;;;;58.90;38.10;;;;;;;4.28;86.72;97765.04;52505;1254;1072942;-77
2023/03/04 07:46:47;;;;;;;55.70;36.10;;;;;;;4.86;84.31;97764.91;52518;1254;1019755;-77
2023/03/04 07:49:14;;;;;;;47.00;27.90;;;;;;;5.28;82.82;97765.05;52483;1254;1072033;-77
2023/03/04 07:51:40;;;;;;;59.90;41.30;;;;;;;5.41;80.73;97766.70;52541;1256;1016122;-75
2023/03/04 07:54:08;;;;;;;48.10;29.10;;;;;;;5.60;78.64;97772.48;52432;1254;1070752;-75
2023/03/04 07:56:35;;;;;;;44.40;28.30;;;;;;;6.09;79.56;97767.93;52468;1254;1015956;-76
2023/03/04 07:59:02;;;;;;;51.10;36.90;;;;;;;6.49;78.59;97770.66;52402;1275;1051787;-76
2023/03/04 08:01:33;;;;;;;55.10;36.40;;;;;;;7.14;79.15;97765.41;52474;1258;1015737;-75
2023/03/04 08:04:00;;;;;;;40.30;23.90;;;;;;;7.18;72.24;97769.31;52514;1259;1058474;-75
2023/03/04 08:06:27;;;;;;;42.20;28.30;;;;;;;7.41;72.53;97773.53;52522;1259;1016709;-75
2023/03/04 08:09:05;;;;;;;48.70;33.70;;;;;;;8.36;73.19;97773.37;52451;1254;1073386;-76
2023/03/04 08:11:32;;;;;;;46.50;31.60;;;;;;;8.19;69.15;97771.52;52505;1254;1074427;-77
2023/03/04 08:13:58;;;;;;;61.90;42.60;;;;;;;7.82;67.09;97777.51;52453;1254;1016310;-76
2023/03/04 08:16:25;;;;;;;47.10;31.10;;;;;;;6.12;69.56;97782.24;52445;1258;1068903;-77
2023/03/04 08:18:54;;;;;;;61.00;44.70;;;;;;;6.03;70.36;97780.38;52445;1254;1016191;-77
2023/03/04 08:21:21;;;;;;;45.60;30.80;;;;;;;6.14;70.87;97783.98;52502;1259;1070302;-77
2023/03/04 08:23:48;;;;;;;48.90;31.50;;;;;;;5.91;70.10;97783.27;52445;1254;1016119;-76
2023/03/04 08:26:18;;;;;;;57.70;36.10;;;;;;;5.79;70.47;97780.71;52463;1259;1050903;-76
2023/03/04 08:28:45;;;;;;;71.40;53.40;;;;;;;6.68;68.12;97782.26;52424;1259;1051399;-77
2023/03/04 08:31:12;;;;;;;53.10;38.10;;;;;;;6.03;69.30;97783.17;52478;1254;1015979;-77
2023/03/04 08:33:39;;;;;;;45.70;29.50;;;;;;;6.57;66.90;97786.88;52389;1259;1060199;-77
2023/03/04 08:36:06;;;;;;;46.00;30.20;;;;;;;6.40;67.46;97785.08;52481;1256;1020761;-77
2023/03/04 08:38:33;;;;;;;49.60;34.30;;;;;;;6.00;68.70;97783.73;52425;1254;1076162;-77
2023/03/04 08:41:00;;;;;;;54.30;35.90;;;;;;;6.25;67.52;97782.92;52498;1253;1016412;-77
2023/03/04 08:43:26;;;;;;;48.50;30.50;;;;;;;6.97;65.77;97784.91;52383;1254;1072023;-76
2023/03/04 08:45:53;;;;;;;46.80;33.20;;;;;;;6.37;66.37;97786.68;52414;1257;1016061;-77
2023/03/04 08:48:20;;;;;;;60.70;37.60;;;;;;;6.21;67.54;97791.24;52531;1258;1070306;-77
2023/03/04 08:50:47;;;;;;;53.10;39.10;;;;;;;6.96;65.92;97791.01;52402;1259;1015696;-77
2023/03/04 08:53:14;;;;;;;48.20;34.10;;;;;;;6.54;66.07;97789.98;52458;1254;1053447;-77
2023/03/04 08:55:40;;;;;;;59.70;38.50;;;;;;;7.15;65.07;97791.55;52436;1259;1017946;-78
2023/03/04 08:58:07;;;;;;;45.60;30.40;;;;;;;7.05;64.47;97793.50;52420;1254;1058255;-77
2023/03/04 09:00:35;;;;;;;41.30;28.00;;;;;;;7.09;64.01;97799.63;52465;1259;1018334;-77
2023/03/04 09:03:02;;;;;;;49.50;36.40;;;;;;;6.05;66.74;97799.63;52460;1254;1076178;-77
2023/03/04 09:05:30;;;;;;;50.50;31.90;;;;;;;4.22;72.61;97799.91;52468;1254;1015792;-76
2023/03/04 09:07:57;;;;;;;43.40;28.40;;;;;;;3.02;78.98;97798.98;52437;1254;1070322;-76
2023/03/04 09:10:23;;;;;;;47.90;27.10;;;;;;;2.42;81.56;97801.46;52453;1259;1016033;-76
2023/03/04 09:12:50;;;;;;;55.80;30.50;;;;;;;1.91;84.68;97801.44;52468;1254;1072982;-76
2023/03/04 09:15:17;;;;;;;55.80;33.00;;;;;;;1.78;86.08;97796.02;52351;1260;1016004;-76
2023/03/04 09:17:44;;;;;;;64.30;35.60;;;;;;;1.50;87.90;97803.04;52721;1259;1051009;-76
2023/03/04 09:20:11;;;;;;;58.70;31.20;;;;;;;1.09;90.65;97808.71;52483;1257;1016204;-76
2023/03/04 09:22:39;;;;;;;49.90;27.00;;;;;;;1.02;91.45;97816.19;52529;1253;1058590;-76
2023/03/04 09:25:06;;;;;;;60.40;31.40;;;;;;;0.79;92.27;97829.44;52448;1254;1016251;-76
2023/03/04 09:27:33;;;;;;;53.70;32.80;;;;;;;0.82;93.65;97836.69;52423;1254;1073670;-76
2023/03/04 09:30:00;;;;;;;61.30;30.60;;;;;;;0.92;94.04;97845.90;52454;1254;1016255;-76
2023/03/04 09:32:27;;;;;;;67.10;36.40;;;;;;;1.15;93.20;97850.18;52447;1254;1071840;-76
2023/03/04 09:34:53;;;;;;;76.10;42.30;;;;;;;1.34;91.78;97852.84;52445;1259;1016077;-76
2023/03/04 09:37:20;;;;;;;72.70;39.90;;;;;;;1.50;90.49;97850.25;52523;1258;1073280;-76
2023/03/04 09:39:48;;;;;;;72.70;39.80;;;;;;;1.57;89.71;97857.34;52446;1254;1016241;-76
2023/03/04 09:42:26;;;;;;;65.10;28.40;;;;;;;1.21;89.88;97855.04;52443;1257;1051310;-76
2023/03/04 09:44:53;;;;;;;56.90;27.90;;;;;;;1.35;88.76;97849.74;52455;1258;1055366;-76
2023/03/04 09:47:19;;;;;;;58.50;33.10;;;;;;;1.19;88.88;97846.94;52386;1259;1015914;-76
2023/03/04 09:50:09;;;;;;;49.30;27.50;;;;;;;1.25;88.67;97845.84;52516;1259;1061226;-76
2023/03/04 09:52:53;;;;;;;49.20;25.10;;;;;;;1.21;87.85;97843.59;52472;1259;1061004;-76
2023/03/04 09:55:41;;;;;;;41.50;21.40;;;;;;;1.03;87.40;97847.98;52424;1254;1060791;-77
2023/03/04 09:58:29;;;;;;;47.60;24.90;;;;;;;0.95;88.15;97844.88;52401;1254;1057993;-76
2023/03/04 10:01:25;;;;;;;50.30;24.70;;;;;;;1.16;86.96;97834.44;52476;1259;1058003;-77
2023/03/04 10:03:54;;;;;;;66.10;35.50;;;;;;;1.18;87.34;97832.95;52481;1259;1060638;-77
2023/03/04 10:06:21;;;;;;;39.70;22.70;;;;;;;1.42;86.79;97835.11;52674;1254;1016476;-79
2023/03/04 10:09:05;;;;;;;44.00;23.90;;;;;;;1.35;86.59;97833.80;52485;1254;1015522;-76
2023/03/04 10:11:36;;;;;;;50.80;26.00;;;;;;;1.43;86.58;97829.30;52473;1259;1074509;-77
2023/03/04 10:14:22;;;;;;;50.20;28.80;;;;;;;1.34;86.44;97834.18;52404;1259;1074179;-77
2023/03/04 10:16:54;;;;;;;54.20;27.00;;;;;;;1.45;86.69;97828.50;52537;1259;1074211;-76
2023/03/04 10:19:55;;;;;;;46.10;25.60;;;;;;;1.52;86.14;97834.23;52406;1259;1073824;-76
2023/03/04 10:22:32;;;;;;;36.60;19.60;;;;;;;1.63;85.64;97831.82;52525;1254;1073176;-77
2023/03/04 10:25:21;;;;;;;48.30;25.30;;;;;;;1.93;84.48;97840.02;52553;1254;1076509;-76
2023/03/04 10:27:49;;;;;;;44.30;26.50;;;;;;;2.25;83.55;97839.84;52437;1259;1073422;-77
2023/03/04 10:30:54;;;;;;;43.20;22.40;;;;;;;2.23;81.53;97833.55;52367;1259;1016319;-76
2023/03/04 10:33:23;;;;;;;43.10;21.60;;;;;;;2.24;81.24;97831.60;52431;1259;1071687;-77
2023/03/04 10:35:52;;;;;;;33.70;18.80;;;;;;;2.26;81.05;97828.12;52352;1257;1016701;-77
2023/03/04 10:38:19;;;;;;;;;;;;;;;2.46;80.89;97828.73;52540;1259;1015625;-77
2023/03/04 10:40:46;;;;;;;46.60;23.90;;;;;;;2.67;81.25;97825.36;52423;1260;1016346;-77
2023/03/04 10:43:17;;;;;;;35.20;17.90;;;;;;;2.78;80.38;97816.41;52444;1258;1070824;-77
2023/03/04 10:45:44;;;;;;;36.70;17.00;;;;;;;2.93;80.22;97820.14;52470;1259;1071551;-77
2023/03/04 10:48:27;;;;;;;34.50;16.70;;;;;;;2.79;80.16;97815.30;52415;1254;1015947;-77
2023/03/04 10:51:11;;;;;;;24.20;12.80;;;;;;;2.81;80.21;97820.27;52534;1254;1053392;-77
2023/03/04 10:53:39;;;;;;;32.20;16.10;;;;;;;2.70;80.43;97822.29;52368;1259;1051263;-76
2023/03/04 10:56:32;;;;;;;31.20;16.20;;;;;;;2.70;80.16;97820.89;52484;1254;1016446;-77
2023/03/04 10:59:36;;;;;;;22.90;12.00;;;;;;;2.50;81.63;97813.48;52405;1259;1051056;-77
2023/03/04 11:02:32;;;;;;;26.90;12.60;;;;;;;2.48;81.36;97809.80;52460;1260;1053867;-76
2023/03/04 11:05:08;;;;;;;17.80;11.20;;;;;;;2.83;81.45;97805.02;52386;1260;1050771;-76
2023/03/04 11:07:38;;;;;;;20.90;10.80;;;;;;;3.28;80.84;97804.76;52407;1260;1053655;-77